Time;durP1;ratioP1;P1;durP2;ratioP2;P2;SDS_P1;SDS_P2;PMS_P1;PMS_P2;Temp;Humidity;BMP_temperature;BMP_pressure;BME280_temperature;BME280_humidity;BME280_pressure;Samples;Min_cycle;Max_cycle;Signal;HPM_P1;HPM_P2
2022/02/23 00:00:46;;;;;;;5.83;1.80;;;8.70;99.90;;;;;;5078381;28;20202;-72
2022/02/23 00:03:12;;;;;;;13.50;2.17;;;8.80;99.90;;;;;;5075950;28;20193;-72
2022/02/23 00:05:39;;;;;;;8.50;2.40;;;8.70;99.90;;;;;;5076198;28;20784;-72
2022/02/23 00:08:05;;;;;;;5.10;2.00;;;8.70;99.90;;;;;;5074930;28;20174;-72
2022/02/23 00:10:31;;;;;;;5.90;2.60;;;8.70;99.90;;;;;;5075437;28;20475;-73
2022/02/23 00:12:56;;;;;;;6.13;2.37;;;8.70;99.90;;;;;;5074254;28;20433;-73
2022/02/23 00:15:22;;;;;;;6.50;3.30;;;8.70;99.90;;;;;;5072395;28;20437;-72
2022/02/23 00:17:50;;;;;;;9.63;2.87;;;8.60;99.90;;;;;;5069656;28;20182;-73
2022/02/23 00:20:16;;;;;;;7.20;2.40;;;8.70;99.90;;;;;;5073909;28;20453;-72
2022/02/23 00:22:42;;;;;;;8.43;2.70;;;8.70;99.90;;;;;;5073984;28;20799;-73
2022/02/23 00:25:09;;;;;;;6.23;2.47;;;8.80;99.90;;;;;;5074607;28;20469;-73
2022/02/23 00:27:35;;;;;;;5.27;2.00;;;8.80;99.90;;;;;;5073183;28;20186;-73
2022/02/23 00:30:01;;;;;;;9.37;2.97;;;8.80;99.90;;;;;;5073829;28;20442;-73
2022/02/23 00:32:26;;;;;;;8.53;2.40;;;8.80;99.90;;;;;;5077743;28;20436;-73
2022/02/23 00:34:52;;;;;;;4.17;2.30;;;8.80;99.90;;;;;;5072797;28;20440;-72
2022/02/23 00:37:18;;;;;;;7.03;2.40;;;8.80;99.90;;;;;;5075966;28;20190;-72
2022/02/23 00:39:44;;;;;;;7.13;2.87;;;8.70;99.90;;;;;;5075226;28;20211;-72
2022/02/23 00:42:09;;;;;;;6.40;2.07;;;8.70;99.90;;;;;;5077155;28;20478;-72
2022/02/23 00:44:35;;;;;;;10.07;2.87;;;8.70;99.90;;;;;;5074063;28;20195;-71
2022/02/23 00:47:01;;;;;;;7.70;2.50;;;8.70;99.90;;;;;;5075120;28;20917;-74
2022/02/23 00:49:28;;;;;;;12.67;3.03;;;8.70;99.90;;;;;;5078484;28;20953;-71
2022/02/23 00:51:54;;;;;;;7.77;4.73;;;8.70;99.90;;;;;;5057686;28;20548;-73
2022/02/23 00:54:20;;;;;;;8.13;2.30;;;8.70;99.90;;;;;;5075594;28;20467;-72
2022/02/23 00:56:46;;;;;;;5.70;2.87;;;8.70;99.90;;;;;;5072223;28;20457;-74
2022/02/23 00:59:13;;;;;;;8.67;3.00;;;8.60;99.90;;;;;;5071870;28;20269;-72
2022/02/23 01:01:39;;;;;;;6.70;2.67;;;8.70;99.90;;;;;;5072637;28;20486;-74
2022/02/23 01:04:07;;;;;;;7.63;2.70;;;8.70;99.90;;;;;;5060002;28;20433;-72
2022/02/23 01:06:33;;;;;;;5.70;2.47;;;8.70;99.90;;;;;;5076066;28;20456;-73
2022/02/23 01:08:59;;;;;;;15.03;3.37;;;8.70;99.90;;;;;;5078402;28;20427;-73
2022/02/23 01:11:25;;;;;;;2.57;1.77;;;8.70;99.90;;;;;;5073294;28;20440;-73
2022/02/23 01:13:51;;;;;;;9.57;2.73;;;8.70;99.90;;;;;;5075315;28;20183;-73
2022/02/23 01:16:17;;;;;;;6.07;2.10;;;8.70;99.90;;;;;;5077833;28;20206;-73
2022/02/23 01:18:43;;;;;;;7.83;3.10;;;8.70;99.90;;;;;;5056828;28;20425;-73
2022/02/23 01:21:09;;;;;;;8.80;2.73;;;8.70;99.90;;;;;;5074878;28;20900;-72
2022/02/23 01:23:35;;;;;;;9.37;3.00;;;8.80;99.90;;;;;;5078724;28;20298;-72
2022/02/23 01:26:01;;;;;;;7.90;2.90;;;8.80;99.90;;;;;;5076351;28;20552;-73
2022/02/23 01:28:27;;;;;;;4.43;2.07;;;8.80;99.90;;;;;;5074159;28;20589;-73
2022/02/23 01:30:53;;;;;;;7.20;1.90;;;8.80;99.90;;;;;;5082498;28;20444;-73
2022/02/23 01:33:19;;;;;;;4.13;1.70;;;8.70;99.90;;;;;;5072981;28;20187;-73
2022/02/23 01:35:44;;;;;;;5.33;1.93;;;8.70;99.90;;;;;;5079123;28;20183;-72
2022/02/23 01:38:10;;;;;;;3.00;1.50;;;8.90;99.90;;;;;;5075438;28;20695;-72
2022/02/23 01:40:36;;;;;;;3.97;1.50;;;8.90;99.90;;;;;;5076433;28;20214;-72
2022/02/23 01:43:02;;;;;;;5.47;1.50;;;8.80;99.90;;;;;;5076418;28;20512;-72
2022/02/23 01:45:28;;;;;;;4.00;1.70;;;8.90;99.90;;;;;;5075772;28;20699;-72
2022/02/23 01:47:53;;;;;;;4.53;1.90;;;8.90;99.90;;;;;;5076399;28;20444;-72
2022/02/23 01:50:19;;;;;;;2.50;1.40;;;8.90;99.90;;;;;;5077201;28;20213;-73
2022/02/23 01:52:45;;;;;;;3.93;1.77;;;8.90;99.90;;;;;;5079168;28;20188;-73
2022/02/23 01:55:11;;;;;;;10.53;2.00;;;9.00;99.90;;;;;;5076135;28;20933;-73
2022/02/23 01:57:38;;;;;;;10.80;2.17;;;9.00;99.90;;;;;;5074883;28;20436;-73
2022/02/23 02:00:05;;;;;;;4.60;1.90;;;9.00;99.90;;;;;;5077959;28;20444;-73
2022/02/23 02:02:31;;;;;;;2.20;1.40;;;9.10;99.90;;;;;;5075735;28;20440;-73
2022/02/23 02:04:57;;;;;;;3.67;1.43;;;9.00;99.90;;;;;;5077435;28;20540;-73
2022/02/23 02:07:22;;;;;;;4.70;2.80;;;9.00;99.90;;;;;;5077277;28;20193;-73
2022/02/23 02:09:48;;;;;;;3.17;1.70;;;9.00;99.90;;;;;;5073668;28;21040;-73
2022/02/23 02:12:13;;;;;;;3.37;1.63;;;9.10;99.90;;;;;;5079623;28;20247;-73
2022/02/23 02:14:39;;;;;;;4.07;1.80;;;9.00;99.90;;;;;;5077961;28;20190;-73
2022/02/23 02:17:05;;;;;;;4.30;1.77;;;9.00;99.90;;;;;;5079862;28;20183;-72
2022/02/23 02:19:30;;;;;;;3.97;1.53;;;8.90;99.90;;;;;;5072692;28;20218;-73
2022/02/23 02:22:06;;;;;;;6.57;1.70;;;9.10;99.90;;;;;;5078412;28;20261;-74
2022/02/23 02:24:37;;;;;;;4.13;2.10;;;9.20;99.90;;;;;;5076357;28;20214;-74
2022/02/23 02:27:05;;;;;;;4.40;2.10;;;9.10;99.90;;;;;;5063226;28;20428;-74
2022/02/23 02:29:32;;;;;;;3.53;1.83;;;9.20;99.90;;;;;;5077269;28;20456;-73
2022/02/23 02:31:58;;;;;;;4.53;1.73;;;9.20;99.90;;;;;;5075029;28;20447;-73
2022/02/23 02:34:24;;;;;;;11.93;2.07;;;9.00;99.90;;;;;;5074915;28;20424;-74
2022/02/23 02:36:50;;;;;;;2.87;1.50;;;9.10;99.90;;;;;;5075397;28;20471;-72
2022/02/23 02:39:17;;;;;;;9.60;2.20;;;9.30;99.90;;;;;;5074174;28;20453;-73
2022/02/23 02:41:44;;;;;;;4.90;1.60;;;9.20;99.90;;;;;;5079334;28;20504;-73
2022/02/23 02:44:09;;;;;;;3.53;1.70;;;9.30;99.90;;;;;;5075952;28;20462;-73
2022/02/23 02:46:35;;;;;;;2.27;1.60;;;9.40;99.90;;;;;;5077045;28;20512;-72
2022/02/23 02:49:01;;;;;;;4.37;1.90;;;9.30;99.90;;;;;;5076638;28;20209;-74
2022/02/23 02:51:26;;;;;;;5.27;2.00;;;9.20;99.90;;;;;;5075562;28;20398;-72
2022/02/23 02:53:52;;;;;;;4.40;1.80;;;9.20;99.90;;;;;;5075761;28;20179;-73
2022/02/23 02:56:18;;;;;;;7.07;1.90;;;9.30;99.90;;;;;;5073771;28;20183;-73
2022/02/23 02:58:51;;;;;;;5.77;2.30;;;9.20;99.90;;;;;;5077200;28;20195;-73
2022/02/23 03:01:24;;;;;;;6.57;2.70;;;9.10;99.90;;;;;;5072588;28;20210;-72
2022/02/23 03:03:50;;;;;;;2.03;1.43;;;9.10;99.90;;;;;;5078277;28;20516;-72
2022/02/23 03:06:17;;;;;;;7.73;1.83;;;9.10;99.90;;;;;;5074313;28;20456;-72
2022/02/23 03:08:44;;;;;;;2.77;1.70;;;9.10;99.90;;;;;;5064073;28;20958;-72
2022/02/23 03:11:10;;;;;;;9.13;2.10;;;9.10;99.90;;;;;;5077689;28;20480;-72
2022/02/23 03:13:36;;;;;;;4.03;1.80;;;9.10;99.90;;;;;;5078385;28;20449;-72
2022/02/23 03:16:02;;;;;;;10.30;1.73;;;9.20;99.90;;;;;;5078331;28;20493;-71
2022/02/23 03:18:27;;;;;;;5.50;1.70;;;9.20;99.90;;;;;;5073810;28;20527;-72
2022/02/23 03:20:53;;;;;;;3.30;1.90;;;9.10;99.90;;;;;;5073681;28;20548;-72
2022/02/23 03:23:18;;;;;;;5.97;1.97;;;9.00;99.90;;;;;;5077856;28;20289;-72
2022/02/23 03:25:45;;;;;;;5.30;1.90;;;9.00;99.90;;;;;;5076024;28;20434;-72
2022/02/23 03:28:10;;;;;;;2.13;1.37;;;9.10;99.90;;;;;;5076623;28;20210;-76
2022/02/23 03:30:39;;;;;;;3.00;1.80;;;8.90;99.90;;;;;;5074233;28;20476;-76
2022/02/23 03:33:06;;;;;;;3.67;2.13;;;8.80;99.90;;;;;;5078400;28;20433;-73
2022/02/23 03:35:31;;;;;;;3.03;2.03;;;8.70;99.90;;;;;;5071560;28;20430;-76
2022/02/23 03:37:57;;;;;;;3.93;1.70;;;8.70;99.90;;;;;;5075522;28;20432;-76
2022/02/23 03:40:24;;;;;;;3.27;2.30;;;8.80;99.90;;;;;;5073897;28;20207;-74
2022/02/23 03:42:51;;;;;;;6.33;2.37;;;8.90;99.90;;;;;;5075708;28;20964;-76
2022/02/23 03:45:16;;;;;;;4.30;1.73;;;9.00;99.90;;;;;;5073845;28;20477;-74
2022/02/23 03:47:42;;;;;;;5.30;2.60;;;9.10;99.90;;;;;;5070700;28;20451;-74
2022/02/23 03:50:08;;;;;;;4.00;2.30;;;9.00;99.90;;;;;;5074170;28;20203;-73
2022/02/23 03:52:33;;;;;;;5.23;2.10;;;9.00;99.90;;;;;;5079446;28;20178;-73
2022/02/23 03:54:59;;;;;;;4.00;1.90;;;9.10;99.90;;;;;;5070542;28;20448;-72
2022/02/23 03:57:25;;;;;;;7.83;2.47;;;9.10;99.90;;;;;;5078090;28;20182;-71
2022/02/23 03:59:50;;;;;;;9.00;2.20;;;9.10;99.90;;;;;;5074807;28;20297;-71
2022/02/23 04:02:16;;;;;;;8.93;3.10;;;8.90;99.90;;;;;;5075174;28;20562;-72
2022/02/23 04:04:41;;;;;;;5.80;2.30;;;9.10;99.90;;;;;;5075476;28;20210;-72
2022/02/23 04:07:07;;;;;;;3.60;2.63;;;9.10;99.90;;;;;;5073602;28;20695;-72
2022/02/23 04:09:33;;;;;;;10.87;2.73;;;8.90;99.90;;;;;;5078183;28;20677;-72
2022/02/23 04:11:58;;;;;;;4.77;2.73;;;8.80;99.90;;;;;;5074254;28;20182;-73
2022/02/23 04:14:24;;;;;;;7.80;2.90;;;9.00;99.90;;;;;;5076931;28;20240;-73
2022/02/23 04:16:50;;;;;;;8.47;3.20;;;8.90;99.90;;;;;;5053961;28;20952;-72
2022/02/23 04:19:16;;;;;;;5.83;2.33;;;8.80;99.90;;;;;;5074566;28;20467;-73
2022/02/23 04:21:42;;;;;;;4.70;3.00;;;8.90;99.90;;;;;;5074029;28;20486;-72
2022/02/23 04:24:08;;;;;;;10.27;2.80;;;9.00;99.90;;;;;;5077187;28;20860;-72
2022/02/23 04:26:35;;;;;;;4.20;2.53;;;9.20;99.90;;;;;;5075592;28;20210;-72
2022/02/23 04:29:05;;;;;;;5.40;3.50;;;9.20;99.90;;;;;;5074972;28;20273;-72
2022/02/23 04:31:32;;;;;;;6.57;3.10;;;9.10;99.90;;;;;;5072671;28;20422;-72
2022/02/23 04:33:58;;;;;;;8.47;3.17;;;9.10;99.90;;;;;;5077503;28;20428;-72
2022/02/23 04:36:23;;;;;;;6.60;3.03;;;9.10;99.90;;;;;;5072306;28;20606;-72
2022/02/23 04:38:49;;;;;;;5.10;3.00;;;9.20;99.90;;;;;;5079927;28;20535;-74
2022/02/23 04:41:15;;;;;;;4.93;2.70;;;9.20;99.90;;;;;;5077544;28;20428;-73
2022/02/23 04:43:43;;;;;;;7.80;2.80;;;9.10;99.90;;;;;;5064678;28;20190;-73
2022/02/23 04:46:13;;;;;;;4.13;3.13;;;9.00;99.90;;;;;;5075742;28;20248;-73
2022/02/23 04:48:43;;;;;;;11.10;3.53;;;8.90;99.90;;;;;;5080154;28;20432;-73
2022/02/23 04:51:09;;;;;;;5.10;2.97;;;8.80;99.90;;;;;;5061507;28;21032;-72
2022/02/23 04:53:35;;;;;;;7.07;3.50;;;8.70;99.90;;;;;;5077372;28;20509;-74
2022/02/23 04:56:02;;;;;;;11.93;5.03;;;8.80;99.90;;;;;;5077992;28;20436;-73
2022/02/23 04:58:27;;;;;;;6.47;3.47;;;8.90;99.90;;;;;;5078231;28;20490;-73
2022/02/23 05:00:53;;;;;;;7.70;3.70;;;8.90;99.90;;;;;;5063481;28;20488;-73
2022/02/23 05:03:19;;;;;;;8.77;3.77;;;8.90;99.90;;;;;;5078896;28;21350;-73
2022/02/23 05:05:45;;;;;;;5.33;3.27;;;9.00;99.90;;;;;;5079342;28;20214;-73
2022/02/23 05:08:13;;;;;;;7.73;3.33;;;8.90;99.90;;;;;;5081656;28;20546;-72
2022/02/23 05:10:39;;;;;;;5.80;3.63;;;9.00;99.90;;;;;;5074398;28;20452;-72
2022/02/23 05:13:05;;;;;;;8.50;4.37;;;8.90;99.90;;;;;;5077697;28;20448;-73
2022/02/23 05:15:30;;;;;;;8.57;4.60;;;8.90;99.90;;;;;;5078046;28;20467;-73
2022/02/23 05:17:56;;;;;;;7.90;3.63;;;8.90;99.90;;;;;;5060348;28;20187;-73
2022/02/23 05:20:22;;;;;;;6.07;3.67;;;8.80;99.90;;;;;;5077174;28;20203;-73
2022/02/23 05:22:48;;;;;;;8.80;4.03;;;8.70;99.90;;;;;;5076785;28;20189;-73
2022/02/23 05:25:15;;;;;;;7.60;4.53;;;8.70;99.90;;;;;;5075552;28;20250;-72
2022/02/23 05:27:41;;;;;;;9.90;3.97;;;8.70;99.90;;;;;;5059980;28;20433;-73
2022/02/23 05:30:08;;;;;;;3.70;3.30;;;8.70;99.90;;;;;;5078608;28;20574;-72
2022/02/23 05:32:34;;;;;;;6.00;3.67;;;8.80;99.90;;;;;;5077563;28;21192;-73
2022/02/23 05:35:00;;;;;;;8.70;3.90;;;8.70;99.90;;;;;;5080038;28;20490;-73
2022/02/23 05:37:26;;;;;;;7.23;3.83;;;8.60;99.90;;;;;;5081310;28;20432;-73
2022/02/23 05:39:51;;;;;;;9.70;4.50;;;8.70;99.90;;;;;;5076932;28;20294;-76
2022/02/23 05:42:17;;;;;;;7.17;4.13;;;8.70;99.90;;;;;;5082506;28;20319;-72
2022/02/23 05:44:43;;;;;;;12.27;4.47;;;8.60;99.90;;;;;;5075690;28;20198;-72
2022/02/23 05:47:08;;;;;;;4.80;4.03;;;8.50;99.90;;;;;;5075225;28;20183;-72
2022/02/23 05:49:34;;;;;;;8.57;4.27;;;8.50;99.90;;;;;;5078355;28;20238;-72
2022/02/23 05:51:59;;;;;;;5.67;3.80;;;8.50;99.90;;;;;;5076381;28;20188;-72
2022/02/23 05:54:25;;;;;;;6.40;3.43;;;8.60;99.90;;;;;;5077830;28;20191;-73
2022/02/23 05:56:54;;;;;;;7.83;3.97;;;8.90;99.90;;;;;;5074683;28;20206;-73
2022/02/23 05:59:20;;;;;;;9.10;4.30;;;8.70;99.90;;;;;;5074847;28;20691;-73
2022/02/23 06:01:47;;;;;;;5.77;4.00;;;8.80;99.90;;;;;;5080169;28;20475;-74
2022/02/23 06:04:12;;;;;;;7.33;4.50;;;8.60;99.90;;;;;;5078439;28;20432;-73
2022/02/23 06:06:38;;;;;;;6.60;4.70;;;8.50;99.90;;;;;;5076965;28;20214;-74
2022/02/23 06:09:03;;;;;;;8.17;4.00;;;8.60;99.90;;;;;;5075659;28;20707;-74
2022/02/23 06:11:29;;;;;;;13.60;3.80;;;8.70;99.90;;;;;;5076401;28;20221;-73
2022/02/23 06:13:54;;;;;;;6.57;3.60;;;8.80;99.90;;;;;;5076832;28;20456;-73
2022/02/23 06:16:22;;;;;;;5.60;3.73;;;8.80;99.90;;;;;;5075038;28;20247;-74
2022/02/23 06:18:48;;;;;;;8.93;4.20;;;8.80;99.90;;;;;;5081257;28;20185;-72
2022/02/23 06:21:14;;;;;;;8.10;3.67;;;8.70;99.90;;;;;;5074340;28;20444;-72
2022/02/23 06:23:40;;;;;;;8.90;4.13;;;8.70;99.90;;;;;;5076244;28;21003;-73
2022/02/23 06:26:06;;;;;;;4.83;3.53;;;8.60;99.90;;;;;;5075690;28;20476;-74
2022/02/23 06:28:33;;;;;;;6.90;4.20;;;8.60;99.90;;;;;;5075016;28;20600;-73
2022/02/23 06:30:59;;;;;;;12.70;4.50;;;8.60;99.90;;;;;;5078238;28;20459;-72
2022/02/23 06:33:25;;;;;;;9.43;3.50;;;8.60;99.90;;;;;;5075027;28;20470;-73
2022/02/23 06:35:52;;;;;;;6.57;4.53;;;8.60;99.90;;;;;;5075857;28;21001;-72
2022/02/23 06:38:18;;;;;;;6.73;4.33;;;8.70;99.90;;;;;;5075538;28;20828;-72
2022/02/23 06:40:45;;;;;;;4.70;3.63;;;8.70;99.90;;;;;;5072742;28;20467;-73
2022/02/23 06:43:14;;;;;;;4.07;3.40;;;8.70;99.90;;;;;;5072124;28;20452;-72
2022/02/23 06:45:39;;;;;;;7.47;4.60;;;8.60;99.90;;;;;;5074830;28;20855;-73
2022/02/23 06:48:05;;;;;;;7.00;4.77;;;8.50;99.90;;;;;;5076327;28;20432;-73
2022/02/23 06:50:32;;;;;;;7.47;4.30;;;8.50;99.90;;;;;;5075976;28;20209;-73
2022/02/23 06:52:59;;;;;;;7.20;4.40;;;8.50;99.90;;;;;;5080441;28;20604;-73
2022/02/23 06:55:24;;;;;;;6.87;3.87;;;8.50;99.90;;;;;;5073363;28;20440;-73
2022/02/23 06:57:50;;;;;;;5.20;4.10;;;8.60;99.90;;;;;;5075398;28;20447;-73
2022/02/23 07:00:16;;;;;;;8.60;4.00;;;8.60;99.90;;;;;;5079193;28;20705;-74
2022/02/23 07:02:42;;;;;;;6.13;3.77;;;8.50;99.90;;;;;;5077688;28;20178;-73
2022/02/23 07:05:08;;;;;;;6.70;4.40;;;8.60;99.90;;;;;;5080559;28;20464;-75
2022/02/23 07:07:34;;;;;;;12.33;5.23;;;8.70;99.90;;;;;;5056352;28;21038;-75
2022/02/23 07:10:03;;;;;;;6.20;4.30;;;8.70;99.90;;;;;;5076961;28;20491;-73
2022/02/23 07:12:28;;;;;;;8.90;4.37;;;8.50;99.90;;;;;;5076683;28;20809;-73
2022/02/23 07:14:54;;;;;;;8.30;4.97;;;8.60;99.90;;;;;;5077318;28;20816;-73
2022/02/23 07:17:20;;;;;;;7.20;4.53;;;8.50;99.90;;;;;;5071146;28;20193;-75
2022/02/23 07:19:45;;;;;;;7.60;4.87;;;8.60;99.90;;;;;;5073554;28;20207;-75
2022/02/23 07:22:11;;;;;;;8.80;4.83;;;8.50;99.90;;;;;;5074237;28;20206;-75
2022/02/23 07:24:37;;;;;;;5.73;4.10;;;8.40;99.90;;;;;;5075512;28;20218;-74
2022/02/23 07:27:08;;;;;;;7.97;4.50;;;8.50;99.90;;;;;;5072400;28;20190;-74
2022/02/23 07:29:34;;;;;;;10.33;5.40;;;8.70;99.90;;;;;;5074661;28;20202;-74
2022/02/23 07:31:59;;;;;;;9.43;4.60;;;8.80;99.90;;;;;;5072602;28;22033;-73
2022/02/23 07:34:25;;;;;;;6.83;4.83;;;8.70;99.90;;;;;;5076188;28;20270;-71
2022/02/23 07:36:50;;;;;;;5.90;4.13;;;8.80;99.90;;;;;;5072289;28;20671;-71
2022/02/23 07:39:16;;;;;;;8.97;4.30;;;8.70;99.90;;;;;;5078070;28;20247;-72
2022/02/23 07:41:42;;;;;;;8.50;5.00;;;8.70;99.90;;;;;;5074218;28;20270;-72
2022/02/23 07:44:07;;;;;;;6.70;4.60;;;8.90;99.90;;;;;;5073874;28;20183;-71
2022/02/23 07:46:33;;;;;;;6.47;5.10;;;8.70;99.90;;;;;;5075048;28;20209;-72
2022/02/23 07:49:00;;;;;;;8.17;4.53;;;8.70;99.90;;;;;;5077003;28;20214;-71
2022/02/23 07:51:26;;;;;;;7.57;3.87;;;8.90;99.90;;;;;;5072648;28;20205;-73
2022/02/23 07:53:54;;;;;;;5.83;4.23;;;8.80;99.90;;;;;;5057884;28;21000;-69
2022/02/23 07:56:21;;;;;;;10.63;5.00;;;8.80;99.90;;;;;;5074169;28;20432;-71
2022/02/23 07:58:47;;;;;;;8.13;4.90;;;8.80;99.90;;;;;;5074198;28;20449;-73
2022/02/23 08:01:34;;;;;;;6.20;3.70;;;8.90;99.90;;;;;;5075626;28;20966;-69
2022/02/23 08:04:00;;;;;;;6.67;4.23;;;8.90;99.90;;;;;;5076290;28;20434;-70
2022/02/23 08:06:26;;;;;;;7.80;4.10;;;8.90;99.90;;;;;;5072868;28;20464;-68
2022/02/23 08:08:54;;;;;;;7.53;4.30;;;8.80;99.90;;;;;;5078638;28;20425;-68
2022/02/23 08:11:19;;;;;;;12.97;5.43;;;8.80;99.90;;;;;;5076119;28;20436;-70
2022/02/23 08:13:45;;;;;;;5.40;3.70;;;8.80;99.90;;;;;;5076235;28;20448;-69
2022/02/23 08:21:40;;;;;;;5.23;4.07;;;8.70;99.90;;;;;;5075098;28;20423;-68
2022/02/23 08:24:06;;;;;;;6.87;4.53;;;8.80;99.90;;;;;;5071057;28;20436;-69
2022/02/23 08:26:31;;;;;;;6.03;5.03;;;8.70;99.90;;;;;;5073988;28;20210;-69
2022/02/23 08:28:57;;;;;;;7.00;5.00;;;8.60;99.90;;;;;;5076489;28;20190;-68
2022/02/23 08:31:23;;;;;;;5.90;4.00;;;8.70;99.90;;;;;;5073504;28;20543;-69
2022/02/23 08:33:48;;;;;;;8.97;4.50;;;8.70;99.90;;;;;;5072635;28;20183;-69
2022/02/23 08:36:14;;;;;;;8.60;4.40;;;8.70;99.90;;;;;;5074456;28;20183;-70
2022/02/23 08:38:41;;;;;;;7.43;4.57;;;8.70;99.90;;;;;;5077606;28;20183;-69
2022/02/23 08:41:07;;;;;;;5.13;4.00;;;8.70;99.90;;;;;;5074221;28;20210;-70
2022/02/23 08:43:33;;;;;;;9.20;4.00;;;8.70;99.90;;;;;;5074534;28;20992;-70
2022/02/23 08:45:58;;;;;;;9.57;4.43;;;8.70;99.90;;;;;;5055865;28;20476;-68
2022/02/23 08:48:26;;;;;;;7.17;4.80;;;8.80;99.90;;;;;;5072570;28;20176;-73
2022/02/23 08:50:51;;;;;;;5.10;4.33;;;8.80;99.90;;;;;;5072816;28;20186;-70
2022/02/23 08:53:20;;;;;;;6.27;4.00;;;8.80;99.90;;;;;;5077178;28;20962;-70
2022/02/23 08:55:45;;;;;;;13.10;5.30;;;8.90;99.90;;;;;;5077746;28;20959;-70
2022/02/23 08:58:14;;;;;;;8.57;4.40;;;8.90;99.90;;;;;;5055871;28;20440;-69
2022/02/23 09:00:40;;;;;;;11.70;5.27;;;9.00;99.90;;;;;;5072777;28;20209;-69
2022/02/23 09:03:06;;;;;;;4.93;3.87;;;9.00;99.90;;;;;;5071453;28;20761;-69
2022/02/23 09:05:31;;;;;;;5.70;3.60;;;9.10;99.90;;;;;;5075561;28;20970;-70
2022/02/23 09:07:57;;;;;;;4.30;2.70;;;9.10;99.90;;;;;;5072806;28;20539;-70
2022/02/23 09:10:23;;;;;;;4.70;3.07;;;9.10;99.90;;;;;;5075195;28;20571;-71
2022/02/23 09:12:49;;;;;;;6.40;3.30;;;9.10;99.90;;;;;;5074544;28;20432;-70
2022/02/23 09:15:15;;;;;;;5.07;2.87;;;9.20;99.90;;;;;;5073189;28;20187;-71
2022/02/23 09:17:42;;;;;;;5.53;3.00;;;9.30;99.90;;;;;;5072464;28;20209;-71
2022/02/23 09:20:08;;;;;;;6.93;2.97;;;9.40;99.90;;;;;;5074317;28;20988;-70
2022/02/23 09:22:34;;;;;;;3.30;2.13;;;9.40;99.90;;;;;;5075550;28;20843;-71
2022/02/23 09:24:59;;;;;;;8.20;2.77;;;9.40;99.90;;;;;;5072943;28;20559;-68
2022/02/23 09:27:25;;;;;;;14.83;2.97;;;9.50;99.90;;;;;;5075383;28;20178;-70
2022/02/23 09:29:50;;;;;;;7.90;2.60;;;9.60;99.90;;;;;;5076910;28;20547;-70
2022/02/23 09:32:16;;;;;;;5.93;3.50;;;9.60;99.90;;;;;;5075608;28;20194;-71
2022/02/23 09:34:45;;;;;;;4.77;2.60;;;9.70;99.90;;;;;;5074574;28;20249;-68
2022/02/23 09:37:10;;;;;;;4.53;3.00;;;9.70;99.90;;;;;;5073760;28;20557;-70
2022/02/23 09:39:36;;;;;;;11.97;3.30;;;9.80;99.90;;;;;;5078418;28;21001;-72
2022/02/23 09:42:02;;;;;;;8.53;4.10;;;9.80;99.90;;;;;;5076467;28;20183;-72
2022/02/23 09:44:29;;;;;;;5.83;3.30;;;9.80;99.90;;;;;;5070158;28;20597;-71
2022/02/23 09:46:55;;;;;;;6.23;3.57;;;9.90;99.90;;;;;;5077949;28;20443;-71
2022/02/23 09:49:20;;;;;;;10.30;4.43;;;9.90;99.90;;;;;;5076090;28;20958;-69
2022/02/23 09:51:49;;;;;;;5.93;3.37;;;9.90;99.90;;;;;;5057705;28;20190;-70
2022/02/23 09:54:16;;;;;;;9.37;4.27;;;9.90;99.90;;;;;;5074401;28;20183;-71
2022/02/23 09:56:45;;;;;;;16.17;4.17;;;10.00;99.90;;;;;;5073107;28;20476;-71
2022/02/23 09:59:12;;;;;;;7.93;3.30;;;10.10;99.90;;;;;;5075503;28;20452;-72
2022/02/23 10:01:40;;;;;;;4.37;3.40;;;10.20;99.90;;;;;;5063344;28;20536;-71
2022/02/23 10:04:07;;;;;;;8.17;3.80;;;10.20;99.90;;;;;;5075217;28;20810;-69
2022/02/23 10:06:36;;;;;;;7.90;3.80;;;10.40;99.90;;;;;;5056070;28;21184;-69
2022/02/23 10:09:08;;;;;;;6.83;3.30;;;10.50;99.90;;;;;;5075100;28;20434;-71
2022/02/23 10:11:35;;;;;;;11.40;4.13;;;10.40;99.90;;;;;;5075669;28;20486;-71
2022/02/23 10:14:02;;;;;;;7.40;3.50;;;10.30;99.90;;;;;;5079757;28;21052;-71
2022/02/23 10:16:49;;;;;;;7.17;3.00;;;10.40;99.90;;;;;;5060996;28;20444;-71
2022/02/23 10:19:21;;;;;;;7.23;3.20;;;10.50;99.90;;;;;;5074731;28;20552;-71
2022/02/23 10:21:57;;;;;;;4.30;2.53;;;10.50;99.90;;;;;;5077729;28;20443;-71
2022/02/23 10:24:39;;;;;;;5.83;2.80;;;10.50;99.90;;;;;;5076780;28;20775;-73
2022/02/23 10:27:10;;;;;;;8.10;3.53;;;10.50;99.90;;;;;;5064523;28;20445;-71
2022/02/23 10:29:55;;;;;;;9.23;3.40;;;10.60;99.90;;;;;;5077777;28;20456;-71
2022/02/23 10:32:25;;;;;;;11.40;3.87;;;10.60;99.90;;;;;;5074464;28;20426;-71
2022/02/23 10:35:04;;;;;;;7.37;3.10;;;10.60;99.90;;;;;;5074986;28;20513;-71
2022/02/23 10:37:31;;;;;;;9.23;2.97;;;10.70;99.90;;;;;;5075866;28;20820;-71
2022/02/23 10:40:00;;;;;;;6.83;3.00;;;10.60;99.90;;;;;;5074039;28;20480;-71
2022/02/23 10:42:35;;;;;;;6.40;3.10;;;10.70;99.90;;;;;;5078003;28;20502;-71
2022/02/23 10:45:03;;;;;;;7.70;2.60;;;10.70;99.90;;;;;;5071890;28;20558;-70
2022/02/23 10:47:35;;;;;;;7.57;2.63;;;10.70;99.90;;;;;;5065495;28;20444;-71
2022/02/23 10:50:14;;;;;;;4.20;2.50;;;10.70;99.90;;;;;;5073533;28;20451;-69
2022/02/23 10:52:51;;;;;;;4.60;3.17;;;10.70;99.90;;;;;;5077434;28;20859;-69
2022/02/23 10:55:26;;;;;;;6.00;2.93;;;10.70;99.90;;;;;;5071748;28;20435;-69
2022/02/23 10:57:57;;;;;;;6.23;2.67;;;10.80;99.90;;;;;;5073428;28;20948;-70
2022/02/23 11:00:27;;;;;;;5.03;2.67;;;10.90;99.90;;;;;;5075212;28;20923;-68
2022/02/23 11:02:53;;;;;;;7.67;3.13;;;11.00;99.90;;;;;;5071144;28;20938;-69
2022/02/23 11:05:24;;;;;;;7.73;3.10;;;11.20;99.90;;;;;;5076188;28;20472;-69
2022/02/23 11:07:52;;;;;;;7.13;3.37;;;11.10;99.90;;;;;;5072201;28;20546;-70
2022/02/23 11:10:18;;;;;;;7.60;4.57;;;11.20;99.90;;;;;;5072908;28;20487;-70
2022/02/23 11:12:46;;;;;;;7.93;3.20;;;11.40;99.90;;;;;;5075745;28;20600;-70
2022/02/23 11:15:31;;;;;;;7.07;3.53;;;11.40;99.90;;;;;;5074772;28;20590;-69
2022/02/23 11:17:57;;;;;;;11.17;3.27;;;11.40;99.90;;;;;;5075470;28;22357;-68
2022/02/23 11:20:26;;;;;;;6.27;2.67;;;11.60;99.90;;;;;;5072812;28;20457;-69
2022/02/23 11:22:56;;;;;;;6.30;4.20;;;11.60;99.90;;;;;;5073985;28;20553;-71
2022/02/23 11:25:35;;;;;;;4.80;2.87;;;11.40;99.90;;;;;;5075218;28;21070;-69
2022/02/23 11:28:10;;;;;;;6.60;2.60;;;11.50;99.90;;;;;;5073064;28;20429;-68
2022/02/23 11:30:36;;;;;;;5.93;2.63;;;11.60;99.90;;;;;;5068848;28;21201;-68
2022/02/23 11:33:04;;;;;;;5.07;2.43;;;11.80;99.90;;;;;;5073329;28;20465;-68
2022/02/23 11:35:49;;;;;;;12.97;2.80;;;11.70;99.90;;;;;;5071967;28;20938;-69
2022/02/23 11:38:20;;;;;;;5.40;2.77;;;11.80;99.90;;;;;;5077261;28;20433;-69
2022/02/23 11:40:51;;;;;;;3.70;3.00;;;11.80;99.90;;;;;;5075739;28;20458;-69
2022/02/23 11:43:24;;;;;;;4.40;2.90;;;11.90;99.90;;;;;;5077603;28;20425;-68
2022/02/23 11:49:12;;;;;;;6.27;2.40;;;12.20;99.90;;;;;;5075040;28;21028;-68
2022/02/23 11:51:38;;;;;;;6.90;3.17;;;12.10;99.90;;;;;;5073612;28;20437;-69
2022/02/23 11:54:04;;;;;;;9.97;2.80;;;12.20;99.90;;;;;;5076593;28;20670;-69
2022/02/23 11:56:48;;;;;;;5.57;2.40;;;12.20;99.90;;;;;;5060443;28;20440;-71
2022/02/23 11:59:46;;;;;;;4.63;2.20;;;12.30;99.90;;;;;;5073759;28;20214;-69
2022/02/23 12:02:13;;;;;;;6.37;2.50;;;12.40;99.90;;;;;;5073218;28;20436;-70
2022/02/23 12:04:47;;;;;;;4.37;2.30;;;12.60;99.90;;;;;;5072160;28;20436;-68
2022/02/23 12:07:14;;;;;;;4.40;2.73;;;12.90;99.90;;;;;;5057519;28;20438;-67
2022/02/23 12:09:52;;;;;;;10.50;2.73;;;12.90;99.90;;;;;;5073657;28;20480;-67
2022/02/23 12:12:43;;;;;;;5.77;2.67;;;13.00;99.90;;;;;;5069433;28;20432;-69
2022/02/23 12:15:31;;;;;;;4.17;2.80;;;13.50;99.90;;;;;;5075209;28;20436;-67
2022/02/23 12:18:13;;;;;;;5.40;2.90;;;14.40;99.90;;;;;;5071297;28;20449;-70
2022/02/23 12:20:41;;;;;;;6.10;2.60;;;15.10;99.90;;;;;;5070204;28;20452;-70
2022/02/23 12:23:14;;;;;;;6.90;2.77;;;16.60;99.90;;;;;;5073766;28;20435;-68
2022/02/23 12:25:51;;;;;;;6.20;3.57;;;17.40;99.90;;;;;;5069316;28;20828;-68
2022/02/23 12:28:23;;;;;;;7.23;3.20;;;18.00;99.90;;;;;;5073991;28;21342;-69
2022/02/23 12:31:20;;;;;;;3.70;2.30;;;18.00;99.90;;;;;;5074072;28;20560;-71
2022/02/23 12:33:53;;;;;;;6.43;2.53;;;18.60;99.90;;;;;;5056491;28;20438;-71
2022/02/23 12:36:48;;;;;;;3.40;2.43;;;19.50;97.30;;;;;;5073657;28;20427;-72
2022/02/23 12:39:19;;;;;;;2.93;2.17;;;19.90;92.30;;;;;;5071423;28;22292;-71
2022/02/23 12:41:48;;;;;;;3.87;2.20;;;19.10;92.90;;;;;;5079750;28;20416;-72
2022/02/23 12:44:18;;;;;;;6.40;2.67;;;19.00;92.50;;;;;;5076152;28;20429;-71
2022/02/23 12:46:47;;;;;;;9.53;4.00;;;18.90;91.80;;;;;;5075945;28;20525;-71
2022/02/23 12:49:14;;;;;;;5.20;2.77;;;19.50;91.20;;;;;;5074320;28;20425;-68
2022/02/23 12:51:43;;;;;;;5.03;2.70;;;19.50;91.80;;;;;;5073953;28;20432;-70
2022/02/23 12:54:11;;;;;;;4.70;2.37;;;19.50;91.90;;;;;;5075929;28;20426;-70
2022/02/23 12:56:39;;;;;;;5.27;2.70;;;20.10;88.30;;;;;;5071680;28;20726;-71
2022/02/23 12:59:06;;;;;;;6.50;3.70;;;20.00;84.70;;;;;;5068246;28;20495;-68
2022/02/23 13:01:43;;;;;;;3.93;2.50;;;20.90;80.40;;;;;;5070703;28;20440;-69
2022/02/23 13:04:35;;;;;;;6.47;2.90;;;21.90;78.30;;;;;;5079511;28;20425;-68